Hammon, Oklahoma
Current Conditions -  °F | °C
As of 4:53 AM on Thursday 18 Dec 2014 (Local Time) from KCSM Reporting Station
Haze Haze  
Wind Chill: 39°   Ceiling: 300
Heat Index: 39°   Visibility: 2mi
Dew Point: 37°   Wind: 3mph
Humidity: 93%   Direction: 180°S
Pressure: 30.08"   Gusts: NA
Location:  35.63°N, 99.38°W
Report Text: KCSM 181053Z AUTO 18003KT 2SM BR OVC003 04/03 A3008 RMK AO2 SLP192 T00390028
Loading
Personal Weather Stations






























Interactive Weather Map New forecast layout! Learn more

10-Day Weather Forecast

Advertisements
Track Severe Weather on mobile